Time,TemperatureF,DewpointF,PressureIn,WindDirection,WindDirectionDegrees,WindSpeedMPH,WindSpeedGustMPH,Humidity,HourlyPrecipIn,Conditions,Clouds,dailyrainin,SolarRadiationWatts/m^2,SoftwareType,DateUTC
2013-03-22 00:04:00,22.0,14.0,-100.00,NNE,32,1.0,2.0,71,0.00,,,0.36,0.000000,,2013-03-22 04:04:00,
2013-03-22 00:10:00,21.0,13.0,-100.00,East,79,0.0,2.0,72,0.00,,,0.36,0.000000,,2013-03-22 04:10:00,
2013-03-22 00:32:00,21.0,13.0,-100.00,East,79,0.0,2.0,72,0.00,,,0.36,0.000000,,2013-03-22 04:32:00,
2013-03-22 00:43:00,21.0,13.0,-100.00,East,79,0.0,2.0,72,0.00,,,0.36,0.000000,,2013-03-22 04:43:00,
2013-03-22 00:52:00,21.0,13.0,-100.00,East,79,0.0,2.0,72,0.00,,,0.36,0.000000,,2013-03-22 04:52:00,
2013-03-22 01:02:00,21.0,13.0,-100.00,East,79,0.0,2.0,72,0.00,,,0.36,0.000000,,2013-03-22 05:02:00,
2013-03-22 01:10:00,21.0,14.0,-100.00,ESE,120,1.0,2.0,73,0.00,,,0.36,0.000000,,2013-03-22 05:10:00,
2013-03-22 01:32:00,21.0,14.0,-100.00,ESE,120,1.0,2.0,73,0.00,,,0.36,0.000000,,2013-03-22 05:32:00,
2013-03-22 01:42:00,21.0,14.0,-100.00,ESE,120,1.0,2.0,73,0.00,,,0.36,0.000000,,2013-03-22 05:42:00,
2013-03-22 01:52:00,21.0,14.0,-100.00,ESE,120,1.0,2.0,73,0.00,,,0.36,0.000000,,2013-03-22 05:52:00,
2013-03-22 02:02:00,21.0,14.0,-100.00,ESE,120,1.0,2.0,73,0.00,,,0.36,0.000000,,2013-03-22 06:02:00,
2013-03-22 02:10:00,19.0,12.0,-100.00,ESE,110,1.0,3.0,75,0.00,,,0.36,0.000000,,2013-03-22 06:10:00,
2013-03-22 02:32:00,19.0,12.0,-100.00,ESE,110,1.0,3.0,75,0.00,,,0.36,0.000000,,2013-03-22 06:32:00,
2013-03-22 02:43:00,19.0,12.0,-100.00,ESE,110,1.0,3.0,75,0.00,,,0.36,0.000000,,2013-03-22 06:43:00,
2013-03-22 02:52:00,19.0,12.0,-100.00,ESE,110,1.0,3.0,75,0.00,,,0.36,0.000000,,2013-03-22 06:52:00,
2013-03-22 03:03:00,19.0,12.0,-100.00,ESE,110,1.0,3.0,75,0.00,,,0.36,0.000000,,2013-03-22 07:03:00,
2013-03-22 03:10:00,17.0,11.0,-100.00,East,87,0.0,2.0,77,0.00,,,0.36,0.000000,,2013-03-22 07:10:00,
2013-03-22 03:42:00,17.0,11.0,-100.00,East,87,0.0,2.0,77,0.00,,,0.36,0.000000,,2013-03-22 07:42:00,
2013-03-22 03:52:00,17.0,11.0,-100.00,East,87,0.0,2.0,77,0.00,,,0.36,0.000000,,2013-03-22 07:52:00,
2013-03-22 04:03:00,17.0,11.0,-100.00,East,87,0.0,2.0,77,0.00,,,0.36,0.000000,,2013-03-22 08:03:00,
2013-03-22 04:10:00,15.0,10.0,-100.00,SE,144,0.0,2.0,79,0.00,,,0.36,0.000000,,2013-03-22 08:10:00,
2013-03-22 04:32:00,15.0,10.0,-100.00,SE,144,0.0,2.0,79,0.00,,,0.36,0.000000,,2013-03-22 08:32:00,
2013-03-22 04:42:00,15.0,10.0,-100.00,SE,144,0.0,2.0,79,0.00,,,0.36,0.000000,,2013-03-22 08:42:00,
2013-03-22 04:52:00,15.0,10.0,-100.00,SE,144,0.0,2.0,79,0.00,,,0.36,0.000000,,2013-03-22 08:52:00,
2013-03-22 05:03:00,15.0,10.0,-100.00,SE,144,0.0,2.0,79,0.00,,,0.36,0.000000,,2013-03-22 09:03:00,
2013-03-22 05:10:00,12.0,7.0,-100.00,ESE,104,0.0,0.0,81,0.00,,,0.36,0.000000,,2013-03-22 09:10:00,
2013-03-22 05:42:00,12.0,7.0,-100.00,ESE,104,0.0,0.0,81,0.00,,,0.36,0.000000,,2013-03-22 09:42:00,
2013-03-22 05:53:00,12.0,7.0,-100.00,ESE,104,0.0,0.0,81,0.00,,,0.36,0.000000,,2013-03-22 09:53:00,
2013-03-22 06:04:00,12.0,7.0,-100.00,ESE,104,0.0,0.0,81,0.00,,,0.36,0.000000,,2013-03-22 10:04:00,
2013-03-22 06:10:00,10.0,6.0,-100.00,ESE,111,1.0,2.0,82,0.00,,,0.36,0.000000,,2013-03-22 10:10:00,
2013-03-22 06:33:00,10.0,6.0,-100.00,ESE,111,1.0,2.0,82,0.00,,,0.36,0.000000,,2013-03-22 10:33:00,
2013-03-22 06:42:00,10.0,6.0,-100.00,ESE,111,1.0,2.0,82,0.00,,,0.36,0.000000,,2013-03-22 10:42:00,
2013-03-22 06:52:00,10.0,6.0,-100.00,ESE,111,1.0,2.0,82,0.00,,,0.36,0.000000,,2013-03-22 10:52:00,
2013-03-22 07:03:00,10.0,6.0,-100.00,ESE,111,1.0,2.0,82,0.00,,,0.36,0.000000,,2013-03-22 11:03:00,
2013-03-22 07:10:00,9.0,5.0,-100.00,North,10,1.0,2.0,83,0.00,,,0.36,4.000000,,2013-03-22 11:10:00,
2013-03-22 07:33:00,9.0,5.0,-100.00,North,10,1.0,2.0,83,0.00,,,0.36,4.000000,,2013-03-22 11:33:00,
2013-03-22 07:42:00,9.0,5.0,-100.00,North,10,1.0,2.0,83,0.00,,,0.36,4.000000,,2013-03-22 11:42:00,
2013-03-22 07:52:00,9.0,5.0,-100.00,North,10,1.0,2.0,83,0.00,,,0.36,4.000000,,2013-03-22 11:52:00,
2013-03-22 08:02:00,9.0,5.0,-100.00,North,10,1.0,2.0,83,0.00,,,0.36,4.000000,,2013-03-22 12:02:00,
2013-03-22 08:10:00,15.0,10.0,-100.00,ESE,104,1.0,3.0,80,0.00,,,0.36,39.000000,,2013-03-22 12:10:00,
2013-03-22 08:42:00,15.0,10.0,-100.00,ESE,104,1.0,3.0,80,0.00,,,0.36,39.000000,,2013-03-22 12:42:00,
2013-03-22 08:52:00,15.0,10.0,-100.00,ESE,104,1.0,3.0,80,0.00,,,0.36,39.000000,,2013-03-22 12:52:00,
2013-03-22 09:02:00,15.0,10.0,-100.00,ESE,104,1.0,3.0,80,0.00,,,0.36,39.000000,,2013-03-22 13:02:00,
2013-03-22 09:10:00,22.0,16.0,-100.00,NNE,13,1.0,4.0,76,0.00,,,0.36,130.000000,,2013-03-22 13:10:00,
2013-03-22 09:42:00,22.0,16.0,-100.00,NNE,13,1.0,4.0,76,0.00,,,0.36,130.000000,,2013-03-22 13:42:00,
2013-03-22 09:53:00,22.0,16.0,-100.00,NNE,13,1.0,4.0,76,0.00,,,0.36,130.000000,,2013-03-22 13:53:00,
2013-03-22 10:03:00,22.0,16.0,-100.00,NNE,13,1.0,4.0,76,0.00,,,0.36,130.000000,,2013-03-22 14:03:00,
2013-03-22 10:10:00,27.0,16.0,-100.00,WSW,250,2.0,4.0,63,0.00,,,0.35,208.000000,,2013-03-22 14:10:00,
2013-03-22 10:43:00,27.0,16.0,-100.00,WSW,250,2.0,4.0,63,0.00,,,0.35,208.000000,,2013-03-22 14:43:00,
2013-03-22 10:52:00,27.0,16.0,-100.00,WSW,250,2.0,4.0,63,0.00,,,0.35,208.000000,,2013-03-22 14:52:00,
2013-03-22 11:03:00,27.0,16.0,-100.00,WSW,250,2.0,4.0,63,0.00,,,0.35,208.000000,,2013-03-22 15:03:00,
2013-03-22 11:10:00,33.0,21.0,-100.00,NNW,334,2.0,6.0,61,0.00,,,0.34,347.000000,,2013-03-22 15:10:00,
2013-03-22 11:43:00,33.0,21.0,-100.00,NNW,334,2.0,6.0,61,0.00,,,0.34,347.000000,,2013-03-22 15:43:00,
2013-03-22 11:53:00,33.0,21.0,-100.00,NNW,334,2.0,6.0,61,0.00,,,0.34,347.000000,,2013-03-22 15:53:00,
2013-03-22 12:03:00,33.0,21.0,-100.00,NNW,334,2.0,6.0,61,0.00,,,0.34,347.000000,,2013-03-22 16:03:00,
2013-03-22 12:10:00,35.0,18.0,-100.00,WSW,252,4.0,8.0,49,0.00,,,0.29,478.000000,,2013-03-22 16:10:00,
2013-03-22 12:42:00,35.0,18.0,-100.00,WSW,252,4.0,8.0,49,0.00,,,0.29,478.000000,,2013-03-22 16:42:00,
2013-03-22 12:52:00,35.0,18.0,-100.00,WSW,252,4.0,8.0,49,0.00,,,0.29,478.000000,,2013-03-22 16:52:00,
2013-03-22 13:03:00,35.0,18.0,-100.00,WSW,252,4.0,8.0,49,0.00,,,0.29,478.000000,,2013-03-22 17:03:00,
2013-03-22 13:10:00,34.0,17.0,-100.00,SW,218,2.0,5.0,49,0.00,,,0.24,255.000000,,2013-03-22 17:10:00,
2013-03-22 13:42:00,34.0,17.0,-100.00,SW,218,2.0,5.0,49,0.00,,,0.24,255.000000,,2013-03-22 17:42:00,
2013-03-22 13:53:00,34.0,17.0,-100.00,SW,218,2.0,5.0,49,0.00,,,0.24,255.000000,,2013-03-22 17:53:00,
2013-03-22 14:02:00,34.0,17.0,-100.00,SW,218,2.0,5.0,49,0.00,,,0.24,255.000000,,2013-03-22 18:02:00,
2013-03-22 14:10:00,34.0,16.0,-100.00,WSW,258,5.0,8.0,48,0.00,,,0.20,216.000000,,2013-03-22 18:10:00,
2013-03-22 14:42:00,34.0,16.0,-100.00,WSW,258,5.0,8.0,48,0.00,,,0.20,216.000000,,2013-03-22 18:42:00,
2013-03-22 14:52:00,34.0,16.0,-100.00,WSW,258,5.0,8.0,48,0.00,,,0.20,216.000000,,2013-03-22 18:52:00,
2013-03-22 15:02:00,34.0,16.0,-100.00,WSW,258,5.0,8.0,48,0.00,,,0.20,216.000000,,2013-03-22 19:02:00,
2013-03-22 15:10:00,35.0,15.0,-100.00,WNW,291,3.0,12.0,44,0.00,,,0.10,329.000000,,2013-03-22 19:10:00,
2013-03-22 15:43:00,35.0,15.0,-100.00,WNW,291,3.0,12.0,44,0.00,,,0.10,329.000000,,2013-03-22 19:43:00,
2013-03-22 15:52:00,35.0,15.0,-100.00,WNW,291,3.0,12.0,44,0.00,,,0.10,329.000000,,2013-03-22 19:52:00,
2013-03-22 16:02:00,35.0,15.0,-100.00,WNW,291,3.0,12.0,44,0.00,,,0.10,329.000000,,2013-03-22 20:02:00,
2013-03-22 16:10:00,34.0,18.0,-100.00,West,265,5.0,10.0,51,0.00,,,0.03,191.000000,,2013-03-22 20:10:00,
2013-03-22 16:43:00,34.0,18.0,-100.00,West,265,5.0,10.0,51,0.00,,,0.03,191.000000,,2013-03-22 20:43:00,
2013-03-22 16:52:00,34.0,18.0,-100.00,West,265,5.0,10.0,51,0.00,,,0.03,191.000000,,2013-03-22 20:52:00,
2013-03-22 17:03:00,34.0,18.0,-100.00,West,265,5.0,10.0,51,0.00,,,0.03,191.000000,,2013-03-22 21:03:00,
2013-03-22 17:10:00,34.0,19.0,-100.00,West,269,6.0,12.0,53,0.00,,,0.01,183.000000,,2013-03-22 21:10:00,
2013-03-22 17:33:00,34.0,19.0,-100.00,West,269,6.0,12.0,53,0.00,,,0.01,183.000000,,2013-03-22 21:33:00,
2013-03-22 17:43:00,34.0,19.0,-100.00,West,269,6.0,12.0,53,0.00,,,0.01,183.000000,,2013-03-22 21:43:00,
2013-03-22 17:53:00,34.0,19.0,-100.00,West,269,6.0,12.0,53,0.00,,,0.01,183.000000,,2013-03-22 21:53:00,
2013-03-22 18:03:00,34.0,19.0,-100.00,West,269,6.0,12.0,53,0.00,,,0.01,183.000000,,2013-03-22 22:03:00,
2013-03-22 18:10:00,31.0,15.0,-100.00,West,280,3.0,9.0,52,0.00,,,0.01,111.000000,,2013-03-22 22:10:00,
2013-03-22 18:43:00,31.0,15.0,-100.00,West,280,3.0,9.0,52,0.00,,,0.01,111.000000,,2013-03-22 22:43:00,
2013-03-22 18:53:00,31.0,15.0,-100.00,West,280,3.0,9.0,52,0.00,,,0.01,111.000000,,2013-03-22 22:53:00,
2013-03-22 19:02:00,31.0,15.0,-100.00,West,280,3.0,9.0,52,0.00,,,0.01,111.000000,,2013-03-22 23:02:00,
2013-03-22 19:10:00,29.0,18.0,-100.00,NNW,339,1.0,10.0,63,0.00,,,0.00,16.000000,,2013-03-22 23:10:00,
2013-03-22 19:33:00,29.0,18.0,-100.00,NNW,339,1.0,10.0,63,0.00,,,0.00,16.000000,,2013-03-22 23:33:00,
2013-03-22 19:42:00,29.0,18.0,-100.00,NNW,339,1.0,10.0,63,0.00,,,0.00,16.000000,,2013-03-22 23:42:00,
2013-03-22 19:52:00,29.0,18.0,-100.00,NNW,339,1.0,10.0,63,0.00,,,0.00,16.000000,,2013-03-22 23:52:00,
2013-03-22 20:02:00,29.0,18.0,-100.00,NNW,339,1.0,10.0,63,0.00,,,0.00,16.000000,,2013-03-23 00:02:00,
2013-03-22 21:10:00,27.0,18.0,-100.00,WNW,299,2.0,14.0,69,-99.99,,,0.00,0.000000,,2013-03-23 01:10:00,
2013-03-22 21:33:00,27.0,18.0,-100.00,WNW,299,2.0,14.0,69,-99.99,,,0.00,0.000000,,2013-03-23 01:33:00,
2013-03-22 21:43:00,27.0,18.0,-100.00,WNW,299,2.0,14.0,69,-99.99,,,0.00,0.000000,,2013-03-23 01:43:00,
2013-03-22 21:52:00,27.0,18.0,-100.00,WNW,299,2.0,14.0,69,-99.99,,,0.00,0.000000,,2013-03-23 01:52:00,
2013-03-22 22:02:00,27.0,18.0,-100.00,WNW,299,2.0,14.0,69,-99.99,,,0.00,0.000000,,2013-03-23 02:02:00,
2013-03-22 22:10:00,25.0,14.0,-100.00,WSW,255,3.0,15.0,63,0.00,,,0.00,0.000000,,2013-03-23 02:10:00,
2013-03-22 22:42:00,25.0,14.0,-100.00,WSW,255,3.0,15.0,63,0.00,,,0.00,0.000000,,2013-03-23 02:42:00,
2013-03-22 22:52:00,25.0,14.0,-100.00,WSW,255,3.0,15.0,63,0.00,,,0.00,0.000000,,2013-03-23 02:52:00,
2013-03-22 23:03:00,25.0,14.0,-100.00,WSW,255,3.0,15.0,63,0.00,,,0.00,0.000000,,2013-03-23 03:03:00,
2013-03-22 23:10:00,24.0,14.0,-100.00,SSW,205,1.0,6.0,65,0.00,,,0.00,0.000000,,2013-03-23 03:10:00,
2013-03-22 23:44:00,24.0,14.0,-100.00,SSW,205,1.0,6.0,65,0.00,,,0.00,0.000000,,2013-03-23 03:44:00,
2013-03-22 23:53:00,24.0,14.0,-100.00,SSW,205,1.0,6.0,65,0.00,,,0.00,0.000000,,2013-03-23 03:53:00,